Time,TemperatureF,DewpointF,PressureIn,WindDirection,WindDirectionDegrees,WindSpeedMPH,WindSpeedGustMPH,Humidity,HourlyPrecipIn,Conditions,Clouds,dailyrainin,SolarRadiationWatts/m^2,SoftwareType,DateUTC
2013-07-22 00:11:00,53.6,51.0,29.88,NE,35,2.0,6.0,90,0.00,,,0.00,0,weatherlink.com 1.10,2013-07-22 07:11:00,
2013-07-22 00:26:00,53.8,51.0,29.88,NNE,26,2.0,8.0,89,0.00,,,0.00,0,weatherlink.com 1.10,2013-07-22 07:26:00,
2013-07-22 00:41:00,53.9,51.0,29.89,NNE,13,3.0,5.0,90,0.00,,,0.00,0,weatherlink.com 1.10,2013-07-22 07:41:00,
2013-07-22 00:56:00,53.3,50.0,29.89,NE,39,0.0,1.0,89,0.00,,,0.00,0,weatherlink.com 1.10,2013-07-22 07:56:00,
2013-07-22 01:11:00,52.8,50.0,29.89,NE,39,0.0,1.0,89,0.00,,,0.00,0,weatherlink.com 1.10,2013-07-22 08:11:00,
2013-07-22 01:26:00,52.3,50.0,29.88,NE,39,0.0,1.0,90,0.00,,,0.00,0,weatherlink.com 1.10,2013-07-22 08:26:00,
2013-07-22 01:41:00,52.1,49.0,29.89,ENE,61,0.0,3.0,90,0.00,,,0.00,0,weatherlink.com 1.10,2013-07-22 08:41:00,
2013-07-22 01:56:00,52.0,50.0,29.89,ENE,61,0.0,2.0,91,0.00,,,0.00,0,weatherlink.com 1.10,2013-07-22 08:56:00,
2013-07-22 02:11:00,52.2,50.0,29.89,ENE,61,0.0,1.0,91,0.00,,,0.00,0,weatherlink.com 1.10,2013-07-22 09:11:00,
2013-07-22 02:26:00,52.6,50.0,29.89,ENE,61,0.0,2.0,91,0.00,,,0.00,0,weatherlink.com 1.10,2013-07-22 09:26:00,
2013-07-22 02:41:00,53.0,51.0,29.89,ENE,71,0.0,2.0,91,0.00,,,0.00,0,weatherlink.com 1.10,2013-07-22 09:41:00,
2013-07-22 02:56:00,53.5,51.0,29.89,ENE,59,0.0,3.0,91,0.00,,,0.00,0,weatherlink.com 1.10,2013-07-22 09:56:00,
2013-07-22 03:12:00,53.6,51.0,29.89,ENE,75,1.0,3.0,90,0.00,,,0.00,0,weatherlink.com 1.10,2013-07-22 10:12:00,
2013-07-22 03:27:00,53.7,51.0,29.89,NE,43,2.0,5.0,89,0.00,,,0.00,0,weatherlink.com 1.10,2013-07-22 10:27:00,
2013-07-22 03:42:00,54.0,51.0,29.89,East,87,1.0,7.0,89,0.00,,,0.00,0,weatherlink.com 1.10,2013-07-22 10:42:00,
2013-07-22 03:57:00,54.3,51.0,29.89,NE,49,4.0,6.0,89,0.00,,,0.00,0,weatherlink.com 1.10,2013-07-22 10:57:00,
2013-07-22 04:12:00,54.7,52.0,29.89,NE,44,2.0,8.0,89,0.00,,,0.00,0,weatherlink.com 1.10,2013-07-22 11:12:00,
2013-07-22 04:27:00,55.0,52.0,29.89,ENE,59,0.0,6.0,89,0.00,,,0.00,0,weatherlink.com 1.10,2013-07-22 11:27:00,
2013-07-22 04:42:00,55.2,52.0,29.89,NE,49,3.0,3.0,89,0.00,,,0.00,0,weatherlink.com 1.10,2013-07-22 11:42:00,
2013-07-22 04:57:00,55.4,52.0,29.89,NE,46,0.0,4.0,88,0.00,,,0.00,0,weatherlink.com 1.10,2013-07-22 11:57:00,
2013-07-22 05:12:00,55.5,52.0,29.90,NNE,24,0.0,4.0,88,0.00,,,0.00,0,weatherlink.com 1.10,2013-07-22 12:12:00,
2013-07-22 05:27:00,55.5,52.0,29.90,NE,51,3.0,4.0,88,0.00,,,0.00,0,weatherlink.com 1.10,2013-07-22 12:27:00,
2013-07-22 05:42:00,55.6,52.0,29.90,NE,44,1.0,3.0,88,0.00,,,0.00,0,weatherlink.com 1.10,2013-07-22 12:42:00,
2013-07-22 05:57:00,55.7,52.0,29.91,NE,44,2.0,3.0,88,0.00,,,0.00,0,weatherlink.com 1.10,2013-07-22 12:57:00,
2013-07-22 06:12:00,55.8,52.0,29.91,NE,43,3.0,5.0,88,0.00,,,0.00,5,weatherlink.com 1.10,2013-07-22 13:12:00,
2013-07-22 06:27:00,56.0,53.0,29.91,ENE,69,1.0,3.0,88,0.00,,,0.00,18,weatherlink.com 1.10,2013-07-22 13:27:00,
2013-07-22 06:42:00,56.2,53.0,29.92,ENE,74,0.0,2.0,88,0.00,,,0.00,35,weatherlink.com 1.10,2013-07-22 13:42:00,
2013-07-22 06:57:00,56.5,53.0,29.92,East,80,1.0,2.0,87,0.00,,,0.00,49,weatherlink.com 1.10,2013-07-22 13:57:00,
2013-07-22 07:12:00,56.8,53.0,29.92,East,86,2.0,2.0,87,0.00,,,0.00,84,weatherlink.com 1.10,2013-07-22 14:12:00,
2013-07-22 07:27:00,57.4,54.0,29.92,NE,49,0.0,3.0,87,0.00,,,0.00,197,weatherlink.com 1.10,2013-07-22 14:27:00,
2013-07-22 07:42:00,57.6,54.0,29.93,NE,39,0.0,3.0,87,0.00,,,0.00,130,weatherlink.com 1.10,2013-07-22 14:42:00,
2013-07-22 07:57:00,58.4,55.0,29.93,NE,49,0.0,3.0,87,0.00,,,0.00,239,weatherlink.com 1.10,2013-07-22 14:57:00,
2013-07-22 08:12:00,59.4,55.0,29.94,NE,44,0.0,3.0,84,0.00,,,0.00,318,weatherlink.com 1.10,2013-07-22 15:12:00,
2013-07-22 08:27:00,60.6,55.0,29.94,NNE,27,1.0,4.0,82,0.00,,,0.00,373,weatherlink.com 1.10,2013-07-22 15:27:00,
2013-07-22 08:42:00,61.5,55.0,29.94,NNE,24,0.0,5.0,80,0.00,,,0.00,424,weatherlink.com 1.10,2013-07-22 15:42:00,
2013-07-22 08:57:00,62.9,56.0,29.93,East,94,2.0,3.0,78,0.00,,,0.00,473,weatherlink.com 1.10,2013-07-22 15:57:00,
2013-07-22 09:12:00,64.8,56.0,29.93,East,88,0.0,5.0,74,0.00,,,0.00,510,weatherlink.com 1.10,2013-07-22 16:12:00,
2013-07-22 09:27:00,66.1,56.0,29.93,ESE,114,2.0,5.0,71,0.00,,,0.00,540,weatherlink.com 1.10,2013-07-22 16:27:00,
2013-07-22 09:43:00,66.6,57.0,29.93,NE,56,3.0,8.0,70,0.00,,,0.00,584,weatherlink.com 1.10,2013-07-22 16:43:00,
2013-07-22 09:58:00,67.9,57.0,29.92,NE,52,0.0,8.0,69,0.00,,,0.00,638,weatherlink.com 1.10,2013-07-22 16:58:00,
2013-07-22 10:13:00,70.4,58.0,29.92,ENE,67,3.0,5.0,64,0.00,,,0.00,684,weatherlink.com 1.10,2013-07-22 17:13:00,
2013-07-22 10:28:00,71.5,58.0,29.92,ENE,68,0.0,4.0,62,0.00,,,0.00,722,weatherlink.com 1.10,2013-07-22 17:28:00,
2013-07-22 10:43:00,72.8,57.0,29.92,NNE,24,1.0,5.0,59,0.00,,,0.00,766,weatherlink.com 1.10,2013-07-22 17:43:00,
2013-07-22 10:58:00,74.8,58.0,29.92,NE,38,0.0,7.0,56,0.00,,,0.00,791,weatherlink.com 1.10,2013-07-22 17:58:00,
2013-07-22 11:13:00,75.8,57.0,29.91,ESE,111,3.0,5.0,53,0.00,,,0.00,851,weatherlink.com 1.10,2013-07-22 18:13:00,
2013-07-22 11:28:00,77.1,57.0,29.91,ENE,63,3.0,7.0,50,0.00,,,0.00,902,weatherlink.com 1.10,2013-07-22 18:28:00,
2013-07-22 11:43:00,77.8,56.0,29.91,WSW,247,0.0,6.0,48,0.00,,,0.00,881,weatherlink.com 1.10,2013-07-22 18:43:00,
2013-07-22 11:58:00,80.0,57.0,29.90,NNE,29,0.0,4.0,45,0.00,,,0.00,705,weatherlink.com 1.10,2013-07-22 18:58:00,
2013-07-22 12:28:00,80.7,57.0,29.90,NE,36,2.0,6.0,44,0.00,,,0.00,608,weatherlink.com 1.10,2013-07-22 19:28:00,
2013-07-22 12:43:00,80.3,58.0,29.90,NNW,336,5.0,8.0,47,0.00,,,0.00,594,weatherlink.com 1.10,2013-07-22 19:43:00,
2013-07-22 12:58:00,80.5,58.0,29.90,WNW,300,8.0,8.0,46,0.00,,,0.00,332,weatherlink.com 1.10,2013-07-22 19:58:00,
2013-07-22 13:13:00,80.7,57.0,29.89,WNW,292,5.0,9.0,44,0.00,,,0.00,343,weatherlink.com 1.10,2013-07-22 20:13:00,
2013-07-22 13:28:00,81.1,56.0,29.89,NW,310,4.0,11.0,42,0.00,,,0.00,323,weatherlink.com 1.10,2013-07-22 20:28:00,
2013-07-22 13:43:00,81.6,56.0,29.89,WNW,292,4.0,7.0,42,0.00,,,0.00,330,weatherlink.com 1.10,2013-07-22 20:43:00,
2013-07-22 13:58:00,82.2,57.0,29.89,NE,35,3.0,8.0,42,0.00,,,0.00,385,weatherlink.com 1.10,2013-07-22 20:58:00,
2013-07-22 14:13:00,81.9,59.0,29.89,NNW,346,8.0,9.0,45,0.00,,,0.00,343,weatherlink.com 1.10,2013-07-22 21:13:00,
2013-07-22 14:28:00,80.7,59.0,29.89,NW,310,6.0,9.0,48,0.00,,,0.00,385,weatherlink.com 1.10,2013-07-22 21:28:00,
2013-07-22 14:43:00,79.8,59.0,29.89,NNW,344,3.0,10.0,50,0.00,,,0.00,629,weatherlink.com 1.10,2013-07-22 21:43:00,
2013-07-22 14:58:00,79.3,60.0,29.89,NNW,340,5.0,9.0,51,0.00,,,0.00,698,weatherlink.com 1.10,2013-07-22 21:58:00,
2013-07-22 15:13:00,78.8,59.0,29.89,WNW,300,4.0,11.0,51,0.00,,,0.00,494,weatherlink.com 1.10,2013-07-22 22:13:00,
2013-07-22 15:28:00,78.1,59.0,29.89,NW,312,6.0,12.0,52,0.00,,,0.00,364,weatherlink.com 1.10,2013-07-22 22:28:00,
2013-07-22 15:43:00,77.9,59.0,29.89,East,84,3.0,9.0,53,0.00,,,0.00,359,weatherlink.com 1.10,2013-07-22 22:43:00,
2013-07-22 15:58:00,77.4,59.0,29.89,NW,311,1.0,11.0,54,0.00,,,0.00,330,weatherlink.com 1.10,2013-07-22 22:58:00,
2013-07-22 16:13:00,76.7,59.0,29.89,NE,48,5.0,10.0,55,0.00,,,0.00,299,weatherlink.com 1.10,2013-07-22 23:13:00,
2013-07-22 16:28:00,74.7,59.0,29.89,NE,40,2.0,12.0,58,0.00,,,0.00,258,weatherlink.com 1.10,2013-07-22 23:28:00,
2013-07-22 16:43:00,72.2,58.0,29.89,ENE,65,9.0,12.0,61,0.00,,,0.00,207,weatherlink.com 1.10,2013-07-22 23:43:00,
2013-07-22 16:58:00,71.0,58.0,29.89,NE,39,4.0,9.0,63,0.00,,,0.00,188,weatherlink.com 1.10,2013-07-22 23:58:00,
2013-07-22 17:13:00,69.8,57.0,29.90,ENE,66,5.0,9.0,65,0.00,,,0.00,174,weatherlink.com 1.10,2013-07-23 00:13:00,
2013-07-22 17:28:00,68.2,57.0,29.90,NNE,28,4.0,9.0,68,0.00,,,0.00,149,weatherlink.com 1.10,2013-07-23 00:28:00,
2013-07-22 17:43:00,66.9,57.0,29.91,NNE,17,3.0,10.0,70,0.00,,,0.00,116,weatherlink.com 1.10,2013-07-23 00:43:00,
2013-07-22 17:58:00,65.8,57.0,29.91,ENE,74,2.0,9.0,72,0.00,,,0.00,98,weatherlink.com 1.10,2013-07-23 00:58:00,
2013-07-22 18:14:00,64.9,56.0,29.92,North,360,4.0,9.0,74,0.00,,,0.00,79,weatherlink.com 1.10,2013-07-23 01:14:00,
2013-07-22 18:28:00,64.6,57.0,29.92,NE,52,3.0,6.0,75,0.00,,,0.00,72,weatherlink.com 1.10,2013-07-23 01:28:00,
2013-07-22 18:43:00,64.0,56.0,29.93,ENE,61,3.0,7.0,75,0.00,,,0.00,63,weatherlink.com 1.10,2013-07-23 01:43:00,
2013-07-22 18:58:00,63.3,56.0,29.94,NE,53,3.0,7.0,77,0.00,,,0.00,39,weatherlink.com 1.10,2013-07-23 01:58:00,
2013-07-22 19:13:00,63.2,56.0,29.94,NNE,33,3.0,5.0,77,0.00,,,0.00,23,weatherlink.com 1.10,2013-07-23 02:13:00,
2013-07-22 19:28:00,62.7,56.0,29.93,NNE,30,5.0,7.0,78,0.00,,,0.00,19,weatherlink.com 1.10,2013-07-23 02:28:00,
2013-07-22 19:44:00,62.2,56.0,29.93,NE,36,4.0,8.0,79,0.00,,,0.00,11,weatherlink.com 1.10,2013-07-23 02:44:00,
2013-07-22 19:59:00,62.3,56.0,29.94,North,360,1.0,5.0,79,0.00,,,0.00,5,weatherlink.com 1.10,2013-07-23 02:59:00,
2013-07-22 20:14:00,62.4,55.0,29.93,NE,47,5.0,8.0,78,0.00,,,0.00,0,weatherlink.com 1.10,2013-07-23 03:14:00,
2013-07-22 20:29:00,62.1,56.0,29.93,ENE,61,5.0,9.0,79,0.00,,,0.00,0,weatherlink.com 1.10,2013-07-23 03:29:00,
2013-07-22 20:44:00,61.6,55.0,29.94,NE,50,5.0,8.0,80,0.00,,,0.00,0,weatherlink.com 1.10,2013-07-23 03:44:00,
2013-07-22 20:59:00,61.3,55.0,29.94,NNE,29,4.0,8.0,80,0.00,,,0.00,0,weatherlink.com 1.10,2013-07-23 03:59:00,
2013-07-22 21:14:00,61.1,55.0,29.94,NE,36,3.0,10.0,80,0.00,,,0.00,0,weatherlink.com 1.10,2013-07-23 04:14:00,
2013-07-22 21:29:00,61.0,55.0,29.94,NE,46,1.0,7.0,81,0.00,,,0.00,0,weatherlink.com 1.10,2013-07-23 04:29:00,
2013-07-22 21:44:00,61.2,55.0,29.94,NE,46,1.0,4.0,81,0.00,,,0.00,0,weatherlink.com 1.10,2013-07-23 04:44:00,
2013-07-22 21:59:00,61.1,55.0,29.95,NNW,342,3.0,5.0,81,0.00,,,0.00,0,weatherlink.com 1.10,2013-07-23 04:59:00,
2013-07-22 22:14:00,60.7,55.0,29.95,North,9,1.0,6.0,81,0.00,,,0.00,0,weatherlink.com 1.10,2013-07-23 05:14:00,
2013-07-22 22:29:00,60.3,55.0,29.96,WNW,285,3.0,5.0,82,0.00,,,0.00,0,weatherlink.com 1.10,2013-07-23 05:29:00,
2013-07-22 22:44:00,59.5,54.0,29.96,NW,317,3.0,5.0,83,0.00,,,0.00,0,weatherlink.com 1.10,2013-07-23 05:44:00,
2013-07-22 22:59:00,59.3,55.0,29.96,North,360,5.0,5.0,84,0.00,,,0.00,0,weatherlink.com 1.10,2013-07-23 05:59:00,
2013-07-22 23:14:00,59.1,54.0,29.95,North,355,3.0,6.0,84,0.00,,,0.00,0,weatherlink.com 1.10,2013-07-23 06:14:00,
2013-07-22 23:29:00,59.0,54.0,29.95,NNW,341,2.0,4.0,84,0.00,,,0.00,0,weatherlink.com 1.10,2013-07-23 06:29:00,
2013-07-22 23:44:00,59.0,55.0,29.93,NNW,342,3.0,5.0,85,0.00,,,0.00,0,weatherlink.com 1.10,2013-07-23 06:44:00,
2013-07-22 23:59:00,58.9,54.0,29.94,North,9,3.0,3.0,85,0.00,,,0.00,0,weatherlink.com 1.10,2013-07-23 06:59:00,